sensor_id;sensor_type;location;lat;lon;timestamp;P1;durP1;ratioP1;P2;durP2;ratioP2
23362;SDS011;11853;48.080;11.960;2023-08-20T00:02:23;6.45;;;4.55;;
23362;SDS011;11853;48.080;11.960;2023-08-20T00:04:50;6.10;;;4.93;;
23362;SDS011;11853;48.080;11.960;2023-08-20T00:07:16;5.85;;;4.93;;
23362;SDS011;11853;48.080;11.960;2023-08-20T00:09:43;5.88;;;4.75;;
23362;SDS011;11853;48.080;11.960;2023-08-20T00:12:09;5.72;;;5.13;;
23362;SDS011;11853;48.080;11.960;2023-08-20T00:17:30;7.63;;;4.93;;
23362;SDS011;11853;48.080;11.960;2023-08-20T00:20:09;8.85;;;5.50;;
23362;SDS011;11853;48.080;11.960;2023-08-20T00:22:38;6.00;;;5.00;;
23362;SDS011;11853;48.080;11.960;2023-08-20T00:25:05;6.15;;;5.22;;
23362;SDS011;11853;48.080;11.960;2023-08-20T00:27:31;6.30;;;5.70;;
23362;SDS011;11853;48.080;11.960;2023-08-20T00:29:58;6.15;;;5.53;;
23362;SDS011;11853;48.080;11.960;2023-08-20T00:32:24;5.90;;;5.28;;
23362;SDS011;11853;48.080;11.960;2023-08-20T00:34:49;8.38;;;5.72;;
23362;SDS011;11853;48.080;11.960;2023-08-20T00:37:15;7.13;;;5.18;;
23362;SDS011;11853;48.080;11.960;2023-08-20T00:39:41;9.32;;;5.82;;
23362;SDS011;11853;48.080;11.960;2023-08-20T00:42:07;8.27;;;6.03;;
23362;SDS011;11853;48.080;11.960;2023-08-20T00:44:36;9.80;;;6.15;;
23362;SDS011;11853;48.080;11.960;2023-08-20T00:47:02;7.03;;;5.93;;
23362;SDS011;11853;48.080;11.960;2023-08-20T00:49:29;6.82;;;6.13;;
23362;SDS011;11853;48.080;11.960;2023-08-20T00:51:57;9.40;;;6.75;;
23362;SDS011;11853;48.080;11.960;2023-08-20T00:54:23;8.25;;;6.30;;
23362;SDS011;11853;48.080;11.960;2023-08-20T00:56:50;7.82;;;6.03;;
23362;SDS011;11853;48.080;11.960;2023-08-20T00:59:16;6.50;;;5.85;;
23362;SDS011;11853;48.080;11.960;2023-08-20T01:01:43;6.93;;;6.00;;
23362;SDS011;11853;48.080;11.960;2023-08-20T01:04:09;8.35;;;6.65;;
23362;SDS011;11853;48.080;11.960;2023-08-20T01:12:16;7.75;;;5.90;;
23362;SDS011;11853;48.080;11.960;2023-08-20T01:14:43;8.43;;;5.93;;
23362;SDS011;11853;48.080;11.960;2023-08-20T01:17:08;6.80;;;6.15;;
23362;SDS011;11853;48.080;11.960;2023-08-20T01:19:34;8.43;;;6.07;;
23362;SDS011;11853;48.080;11.960;2023-08-20T01:25:18;7.18;;;6.00;;
23362;SDS011;11853;48.080;11.960;2023-08-20T01:30:53;7.40;;;6.15;;
23362;SDS011;11853;48.080;11.960;2023-08-20T01:33:21;7.03;;;5.90;;
23362;SDS011;11853;48.080;11.960;2023-08-20T01:35:49;8.95;;;6.97;;
23362;SDS011;11853;48.080;11.960;2023-08-20T01:38:16;8.23;;;6.10;;
23362;SDS011;11853;48.080;11.960;2023-08-20T01:40:42;10.30;;;6.60;;
23362;SDS011;11853;48.080;11.960;2023-08-20T01:43:08;9.73;;;6.70;;
23362;SDS011;11853;48.080;11.960;2023-08-20T01:45:33;8.68;;;6.60;;
23362;SDS011;11853;48.080;11.960;2023-08-20T01:47:59;6.57;;;5.57;;
23362;SDS011;11853;48.080;11.960;2023-08-20T01:50:24;6.72;;;6.00;;
23362;SDS011;11853;48.080;11.960;2023-08-20T01:52:50;7.68;;;6.65;;
23362;SDS011;11853;48.080;11.960;2023-08-20T01:55:16;9.18;;;6.35;;
23362;SDS011;11853;48.080;11.960;2023-08-20T01:57:41;7.82;;;6.32;;
23362;SDS011;11853;48.080;11.960;2023-08-20T02:00:08;7.45;;;6.63;;
23362;SDS011;11853;48.080;11.960;2023-08-20T02:02:34;7.28;;;6.60;;
23362;SDS011;11853;48.080;11.960;2023-08-20T02:05:00;8.27;;;6.82;;
23362;SDS011;11853;48.080;11.960;2023-08-20T02:07:26;7.43;;;6.38;;
23362;SDS011;11853;48.080;11.960;2023-08-20T02:09:52;7.38;;;6.28;;
23362;SDS011;11853;48.080;11.960;2023-08-20T02:12:18;7.25;;;6.55;;
23362;SDS011;11853;48.080;11.960;2023-08-20T02:14:43;10.88;;;6.60;;
23362;SDS011;11853;48.080;11.960;2023-08-20T02:17:09;9.23;;;5.78;;
23362;SDS011;11853;48.080;11.960;2023-08-20T02:19:37;7.15;;;6.05;;
23362;SDS011;11853;48.080;11.960;2023-08-20T02:22:03;7.03;;;6.35;;
23362;SDS011;11853;48.080;11.960;2023-08-20T02:24:28;9.05;;;6.70;;
23362;SDS011;11853;48.080;11.960;2023-08-20T02:26:54;10.07;;;5.38;;
23362;SDS011;11853;48.080;11.960;2023-08-20T02:29:20;7.13;;;5.60;;
23362;SDS011;11853;48.080;11.960;2023-08-20T02:31:45;6.63;;;5.93;;
23362;SDS011;11853;48.080;11.960;2023-08-20T02:34:11;7.15;;;6.03;;
23362;SDS011;11853;48.080;11.960;2023-08-20T02:36:36;8.50;;;5.63;;
23362;SDS011;11853;48.080;11.960;2023-08-20T02:39:02;7.22;;;5.35;;
23362;SDS011;11853;48.080;11.960;2023-08-20T02:41:32;9.43;;;5.60;;
23362;SDS011;11853;48.080;11.960;2023-08-20T02:44:01;7.07;;;4.97;;
23362;SDS011;11853;48.080;11.960;2023-08-20T02:46:27;9.75;;;5.20;;
23362;SDS011;11853;48.080;11.960;2023-08-20T02:48:53;11.95;;;5.20;;
23362;SDS011;11853;48.080;11.960;2023-08-20T02:51:18;7.55;;;5.28;;
23362;SDS011;11853;48.080;11.960;2023-08-20T02:53:44;8.07;;;4.93;;
23362;SDS011;11853;48.080;11.960;2023-08-20T02:56:10;7.40;;;4.97;;
23362;SDS011;11853;48.080;11.960;2023-08-20T02:58:35;7.05;;;5.00;;
23362;SDS011;11853;48.080;11.960;2023-08-20T03:01:01;5.90;;;4.80;;
23362;SDS011;11853;48.080;11.960;2023-08-20T03:03:27;5.75;;;4.97;;
23362;SDS011;11853;48.080;11.960;2023-08-20T03:05:53;8.13;;;4.50;;
23362;SDS011;11853;48.080;11.960;2023-08-20T03:08:19;8.38;;;4.78;;
23362;SDS011;11853;48.080;11.960;2023-08-20T03:10:45;8.77;;;4.88;;
23362;SDS011;11853;48.080;11.960;2023-08-20T03:13:10;6.60;;;4.30;;
23362;SDS011;11853;48.080;11.960;2023-08-20T03:15:36;8.88;;;4.93;;
23362;SDS011;11853;48.080;11.960;2023-08-20T03:18:02;7.03;;;4.80;;
23362;SDS011;11853;48.080;11.960;2023-08-20T03:20:28;9.52;;;4.97;;
23362;SDS011;11853;48.080;11.960;2023-08-20T03:22:56;5.75;;;4.43;;
23362;SDS011;11853;48.080;11.960;2023-08-20T03:25:21;5.90;;;4.53;;
23362;SDS011;11853;48.080;11.960;2023-08-20T03:27:47;5.18;;;4.38;;
23362;SDS011;11853;48.080;11.960;2023-08-20T03:30:13;6.95;;;4.80;;
23362;SDS011;11853;48.080;11.960;2023-08-20T03:32:38;8.20;;;5.18;;
23362;SDS011;11853;48.080;11.960;2023-08-20T03:35:04;5.97;;;4.30;;
23362;SDS011;11853;48.080;11.960;2023-08-20T03:37:30;7.75;;;4.68;;
23362;SDS011;11853;48.080;11.960;2023-08-20T03:39:55;9.20;;;4.70;;
23362;SDS011;11853;48.080;11.960;2023-08-20T03:42:21;6.65;;;4.57;;
23362;SDS011;11853;48.080;11.960;2023-08-20T03:44:46;5.88;;;4.47;;
23362;SDS011;11853;48.080;11.960;2023-08-20T03:47:12;10.00;;;4.55;;
23362;SDS011;11853;48.080;11.960;2023-08-20T03:49:37;7.60;;;4.15;;
23362;SDS011;11853;48.080;11.960;2023-08-20T03:52:03;5.97;;;4.50;;
23362;SDS011;11853;48.080;11.960;2023-08-20T03:54:32;10.00;;;4.53;;
23362;SDS011;11853;48.080;11.960;2023-08-20T03:56:58;6.40;;;4.63;;
23362;SDS011;11853;48.080;11.960;2023-08-20T03:59:24;7.97;;;4.72;;
23362;SDS011;11853;48.080;11.960;2023-08-20T04:01:49;6.30;;;4.60;;
23362;SDS011;11853;48.080;11.960;2023-08-20T04:04:15;5.88;;;4.50;;
23362;SDS011;11853;48.080;11.960;2023-08-20T04:06:40;6.68;;;4.00;;
23362;SDS011;11853;48.080;11.960;2023-08-20T04:09:06;8.30;;;4.55;;
23362;SDS011;11853;48.080;11.960;2023-08-20T04:11:32;8.32;;;4.55;;
23362;SDS011;11853;48.080;11.960;2023-08-20T04:13:57;8.15;;;5.10;;
23362;SDS011;11853;48.080;11.960;2023-08-20T04:16:23;5.55;;;4.68;;
23362;SDS011;11853;48.080;11.960;2023-08-20T04:18:48;11.00;;;4.53;;
23362;SDS011;11853;48.080;11.960;2023-08-20T04:21:14;6.50;;;4.47;;
23362;SDS011;11853;48.080;11.960;2023-08-20T04:23:40;7.65;;;4.07;;
23362;SDS011;11853;48.080;11.960;2023-08-20T04:26:06;6.45;;;4.50;;
23362;SDS011;11853;48.080;11.960;2023-08-20T04:28:32;8.65;;;4.30;;
23362;SDS011;11853;48.080;11.960;2023-08-20T04:30:58;7.97;;;4.65;;
23362;SDS011;11853;48.080;11.960;2023-08-20T04:33:25;9.48;;;4.70;;
23362;SDS011;11853;48.080;11.960;2023-08-20T04:35:51;7.00;;;4.65;;
23362;SDS011;11853;48.080;11.960;2023-08-20T04:38:16;9.55;;;5.30;;
23362;SDS011;11853;48.080;11.960;2023-08-20T04:40:42;7.13;;;4.50;;
23362;SDS011;11853;48.080;11.960;2023-08-20T04:43:10;5.43;;;4.45;;
23362;SDS011;11853;48.080;11.960;2023-08-20T04:45:36;5.65;;;4.35;;
23362;SDS011;11853;48.080;11.960;2023-08-20T04:48:01;6.15;;;4.30;;
23362;SDS011;11853;48.080;11.960;2023-08-20T04:50:27;5.82;;;4.32;;
23362;SDS011;11853;48.080;11.960;2023-08-20T04:52:52;7.32;;;4.63;;
23362;SDS011;11853;48.080;11.960;2023-08-20T04:55:18;6.55;;;4.20;;
23362;SDS011;11853;48.080;11.960;2023-08-20T04:57:44;9.05;;;4.78;;
23362;SDS011;11853;48.080;11.960;2023-08-20T05:00:09;6.10;;;4.30;;
23362;SDS011;11853;48.080;11.960;2023-08-20T05:02:35;5.38;;;4.10;;
23362;SDS011;11853;48.080;11.960;2023-08-20T05:05:01;6.93;;;4.07;;
23362;SDS011;11853;48.080;11.960;2023-08-20T05:07:28;5.05;;;4.45;;
23362;SDS011;11853;48.080;11.960;2023-08-20T05:09:53;6.00;;;4.35;;
23362;SDS011;11853;48.080;11.960;2023-08-20T05:12:19;5.53;;;3.95;;
23362;SDS011;11853;48.080;11.960;2023-08-20T05:14:45;6.00;;;4.40;;
23362;SDS011;11853;48.080;11.960;2023-08-20T05:17:10;7.88;;;4.70;;
23362;SDS011;11853;48.080;11.960;2023-08-20T05:19:36;9.48;;;4.72;;
23362;SDS011;11853;48.080;11.960;2023-08-20T05:22:01;6.35;;;4.60;;
23362;SDS011;11853;48.080;11.960;2023-08-20T05:24:27;6.57;;;4.28;;
23362;SDS011;11853;48.080;11.960;2023-08-20T05:27:08;7.35;;;4.97;;
23362;SDS011;11853;48.080;11.960;2023-08-20T05:29:42;6.72;;;4.28;;
23362;SDS011;11853;48.080;11.960;2023-08-20T05:32:07;7.90;;;4.68;;
23362;SDS011;11853;48.080;11.960;2023-08-20T05:34:33;8.25;;;5.03;;
23362;SDS011;11853;48.080;11.960;2023-08-20T05:36:59;8.77;;;4.97;;
23362;SDS011;11853;48.080;11.960;2023-08-20T05:39:25;10.27;;;5.22;;
23362;SDS011;11853;48.080;11.960;2023-08-20T05:41:52;6.43;;;4.70;;
23362;SDS011;11853;48.080;11.960;2023-08-20T05:44:18;7.97;;;4.80;;
23362;SDS011;11853;48.080;11.960;2023-08-20T05:46:43;6.38;;;4.43;;
23362;SDS011;11853;48.080;11.960;2023-08-20T05:49:09;5.32;;;4.72;;
23362;SDS011;11853;48.080;11.960;2023-08-20T05:51:35;7.47;;;4.90;;
23362;SDS011;11853;48.080;11.960;2023-08-20T05:54:00;9.82;;;5.15;;
23362;SDS011;11853;48.080;11.960;2023-08-20T05:56:26;7.35;;;4.80;;
23362;SDS011;11853;48.080;11.960;2023-08-20T05:58:51;8.77;;;4.85;;
23362;SDS011;11853;48.080;11.960;2023-08-20T06:01:17;8.00;;;4.35;;
23362;SDS011;11853;48.080;11.960;2023-08-20T06:03:42;6.65;;;4.45;;
23362;SDS011;11853;48.080;11.960;2023-08-20T06:06:08;6.68;;;4.90;;
23362;SDS011;11853;48.080;11.960;2023-08-20T06:08:33;7.70;;;4.78;;
23362;SDS011;11853;48.080;11.960;2023-08-20T06:10:59;9.32;;;5.03;;
23362;SDS011;11853;48.080;11.960;2023-08-20T06:13:24;9.35;;;5.40;;
23362;SDS011;11853;48.080;11.960;2023-08-20T06:15:50;6.05;;;4.47;;
23362;SDS011;11853;48.080;11.960;2023-08-20T06:18:15;6.00;;;4.68;;
23362;SDS011;11853;48.080;11.960;2023-08-20T06:20:41;7.13;;;4.70;;
23362;SDS011;11853;48.080;11.960;2023-08-20T06:23:06;10.48;;;4.90;;
23362;SDS011;11853;48.080;11.960;2023-08-20T06:25:32;7.20;;;5.35;;
23362;SDS011;11853;48.080;11.960;2023-08-20T06:27:58;5.25;;;4.60;;
23362;SDS011;11853;48.080;11.960;2023-08-20T06:30:23;8.60;;;5.22;;
23362;SDS011;11853;48.080;11.960;2023-08-20T06:32:49;6.53;;;5.05;;
23362;SDS011;11853;48.080;11.960;2023-08-20T06:35:14;6.53;;;4.88;;
23362;SDS011;11853;48.080;11.960;2023-08-20T06:37:40;6.70;;;4.90;;
23362;SDS011;11853;48.080;11.960;2023-08-20T06:40:06;6.97;;;4.97;;
23362;SDS011;11853;48.080;11.960;2023-08-20T06:42:32;5.28;;;4.78;;
23362;SDS011;11853;48.080;11.960;2023-08-20T06:44:58;7.70;;;4.80;;
23362;SDS011;11853;48.080;11.960;2023-08-20T06:47:24;7.57;;;4.70;;
23362;SDS011;11853;48.080;11.960;2023-08-20T06:49:50;6.63;;;4.40;;
23362;SDS011;11853;48.080;11.960;2023-08-20T06:52:16;9.23;;;5.20;;
23362;SDS011;11853;48.080;11.960;2023-08-20T06:54:45;6.53;;;4.63;;
23362;SDS011;11853;48.080;11.960;2023-08-20T06:57:10;10.80;;;5.15;;
23362;SDS011;11853;48.080;11.960;2023-08-20T06:59:39;8.27;;;4.75;;
23362;SDS011;11853;48.080;11.960;2023-08-20T07:02:08;5.72;;;4.20;;
23362;SDS011;11853;48.080;11.960;2023-08-20T07:04:35;7.00;;;4.57;;
23362;SDS011;11853;48.080;11.960;2023-08-20T07:07:01;6.38;;;4.40;;
23362;SDS011;11853;48.080;11.960;2023-08-20T07:09:26;7.47;;;4.50;;
23362;SDS011;11853;48.080;11.960;2023-08-20T07:11:52;8.68;;;5.15;;
23362;SDS011;11853;48.080;11.960;2023-08-20T07:14:18;10.32;;;5.00;;
23362;SDS011;11853;48.080;11.960;2023-08-20T07:16:49;7.97;;;5.00;;
23362;SDS011;11853;48.080;11.960;2023-08-20T07:19:14;9.15;;;4.95;;
23362;SDS011;11853;48.080;11.960;2023-08-20T07:21:40;10.57;;;5.60;;
23362;SDS011;11853;48.080;11.960;2023-08-20T07:24:06;6.57;;;4.85;;
23362;SDS011;11853;48.080;11.960;2023-08-20T07:26:31;5.97;;;4.88;;
23362;SDS011;11853;48.080;11.960;2023-08-20T07:28:57;6.55;;;5.68;;
23362;SDS011;11853;48.080;11.960;2023-08-20T07:31:23;8.07;;;4.78;;
23362;SDS011;11853;48.080;11.960;2023-08-20T07:33:50;5.85;;;4.50;;
23362;SDS011;11853;48.080;11.960;2023-08-20T07:36:16;10.25;;;4.90;;
23362;SDS011;11853;48.080;11.960;2023-08-20T07:38:42;7.53;;;4.90;;
23362;SDS011;11853;48.080;11.960;2023-08-20T07:41:09;8.10;;;5.00;;
23362;SDS011;11853;48.080;11.960;2023-08-20T07:43:37;8.68;;;5.55;;
23362;SDS011;11853;48.080;11.960;2023-08-20T07:46:03;6.15;;;5.00;;
23362;SDS011;11853;48.080;11.960;2023-08-20T07:48:33;7.82;;;5.40;;
23362;SDS011;11853;48.080;11.960;2023-08-20T07:50:59;6.15;;;5.10;;
23362;SDS011;11853;48.080;11.960;2023-08-20T07:53:25;7.97;;;5.50;;
23362;SDS011;11853;48.080;11.960;2023-08-20T07:55:50;10.30;;;5.32;;
23362;SDS011;11853;48.080;11.960;2023-08-20T07:58:16;10.23;;;5.38;;
23362;SDS011;11853;48.080;11.960;2023-08-20T08:00:42;7.63;;;4.68;;
23362;SDS011;11853;48.080;11.960;2023-08-20T08:03:08;10.07;;;5.63;;
23362;SDS011;11853;48.080;11.960;2023-08-20T08:05:34;7.90;;;4.80;;
23362;SDS011;11853;48.080;11.960;2023-08-20T08:08:00;8.82;;;5.80;;
23362;SDS011;11853;48.080;11.960;2023-08-20T08:10:26;8.18;;;5.18;;
23362;SDS011;11853;48.080;11.960;2023-08-20T08:12:52;13.25;;;5.25;;
23362;SDS011;11853;48.080;11.960;2023-08-20T08:15:17;10.27;;;4.90;;
23362;SDS011;11853;48.080;11.960;2023-08-20T08:17:43;8.32;;;5.07;;
23362;SDS011;11853;48.080;11.960;2023-08-20T08:20:09;12.00;;;5.47;;
23362;SDS011;11853;48.080;11.960;2023-08-20T08:22:35;10.20;;;5.05;;
23362;SDS011;11853;48.080;11.960;2023-08-20T08:25:00;7.57;;;5.20;;
23362;SDS011;11853;48.080;11.960;2023-08-20T08:27:26;6.72;;;4.70;;
23362;SDS011;11853;48.080;11.960;2023-08-20T08:29:51;6.90;;;5.00;;
23362;SDS011;11853;48.080;11.960;2023-08-20T08:32:17;6.80;;;4.55;;
23362;SDS011;11853;48.080;11.960;2023-08-20T08:34:42;5.72;;;5.00;;
23362;SDS011;11853;48.080;11.960;2023-08-20T08:37:08;10.38;;;5.28;;
23362;SDS011;11853;48.080;11.960;2023-08-20T08:39:34;6.38;;;4.65;;
23362;SDS011;11853;48.080;11.960;2023-08-20T08:42:01;8.80;;;5.07;;
23362;SDS011;11853;48.080;11.960;2023-08-20T08:44:33;6.63;;;5.05;;
23362;SDS011;11853;48.080;11.960;2023-08-20T08:47:00;11.07;;;5.60;;
23362;SDS011;11853;48.080;11.960;2023-08-20T08:49:26;9.05;;;4.85;;
23362;SDS011;11853;48.080;11.960;2023-08-20T08:51:56;5.93;;;4.95;;
23362;SDS011;11853;48.080;11.960;2023-08-20T08:54:22;6.22;;;5.10;;
23362;SDS011;11853;48.080;11.960;2023-08-20T08:56:48;6.40;;;5.15;;
23362;SDS011;11853;48.080;11.960;2023-08-20T08:59:14;6.03;;;5.15;;
23362;SDS011;11853;48.080;11.960;2023-08-20T09:01:40;8.48;;;4.65;;
23362;SDS011;11853;48.080;11.960;2023-08-20T09:04:06;5.85;;;4.75;;
23362;SDS011;11853;48.080;11.960;2023-08-20T09:06:48;6.40;;;5.05;;
23362;SDS011;11853;48.080;11.960;2023-08-20T09:09:18;7.55;;;4.97;;
23362;SDS011;11853;48.080;11.960;2023-08-20T09:11:50;5.72;;;5.13;;
23362;SDS011;11853;48.080;11.960;2023-08-20T09:14:37;8.10;;;4.88;;
23362;SDS011;11853;48.080;11.960;2023-08-20T09:17:02;8.80;;;5.22;;
23362;SDS011;11853;48.080;11.960;2023-08-20T09:19:28;7.32;;;4.70;;
23362;SDS011;11853;48.080;11.960;2023-08-20T09:21:58;7.55;;;4.97;;
23362;SDS011;11853;48.080;11.960;2023-08-20T09:24:33;7.00;;;4.90;;
23362;SDS011;11853;48.080;11.960;2023-08-20T09:27:13;7.50;;;4.80;;
23362;SDS011;11853;48.080;11.960;2023-08-20T09:32:14;6.35;;;5.15;;
23362;SDS011;11853;48.080;11.960;2023-08-20T09:34:47;6.20;;;4.38;;
23362;SDS011;11853;48.080;11.960;2023-08-20T09:37:15;6.20;;;4.50;;
23362;SDS011;11853;48.080;11.960;2023-08-20T09:39:43;5.35;;;4.85;;
23362;SDS011;11853;48.080;11.960;2023-08-20T09:42:22;7.93;;;4.75;;
23362;SDS011;11853;48.080;11.960;2023-08-20T09:44:57;7.00;;;4.32;;
23362;SDS011;11853;48.080;11.960;2023-08-20T09:47:28;5.78;;;4.53;;
23362;SDS011;11853;48.080;11.960;2023-08-20T09:50:00;7.45;;;4.50;;
23362;SDS011;11853;48.080;11.960;2023-08-20T09:52:38;5.20;;;4.15;;
23362;SDS011;11853;48.080;11.960;2023-08-20T09:55:13;5.15;;;4.40;;
23362;SDS011;11853;48.080;11.960;2023-08-20T09:57:45;8.75;;;4.47;;
23362;SDS011;11853;48.080;11.960;2023-08-20T10:00:13;5.47;;;4.57;;
23362;SDS011;11853;48.080;11.960;2023-08-20T10:02:40;5.53;;;4.75;;
23362;SDS011;11853;48.080;11.960;2023-08-20T10:05:07;7.50;;;4.30;;
23362;SDS011;11853;48.080;11.960;2023-08-20T10:07:34;8.15;;;4.65;;
23362;SDS011;11853;48.080;11.960;2023-08-20T10:10:02;6.00;;;4.32;;
23362;SDS011;11853;48.080;11.960;2023-08-20T10:12:30;8.40;;;4.30;;
23362;SDS011;11853;48.080;11.960;2023-08-20T10:14:56;5.78;;;4.13;;
23362;SDS011;11853;48.080;11.960;2023-08-20T10:17:23;6.50;;;4.38;;
23362;SDS011;11853;48.080;11.960;2023-08-20T10:19:52;5.32;;;4.30;;
23362;SDS011;11853;48.080;11.960;2023-08-20T10:22:19;5.88;;;4.43;;
23362;SDS011;11853;48.080;11.960;2023-08-20T10:24:52;8.00;;;4.57;;
23362;SDS011;11853;48.080;11.960;2023-08-20T10:27:25;7.72;;;4.97;;
23362;SDS011;11853;48.080;11.960;2023-08-20T10:29:52;8.00;;;4.75;;
23362;SDS011;11853;48.080;11.960;2023-08-20T10:32:19;6.80;;;4.88;;
23362;SDS011;11853;48.080;11.960;2023-08-20T10:34:49;5.80;;;4.60;;
23362;SDS011;11853;48.080;11.960;2023-08-20T10:37:25;5.53;;;4.80;;
23362;SDS011;11853;48.080;11.960;2023-08-20T10:39:55;4.57;;;4.10;;
23362;SDS011;11853;48.080;11.960;2023-08-20T10:42:25;5.25;;;4.30;;
23362;SDS011;11853;48.080;11.960;2023-08-20T10:45:02;5.45;;;4.47;;
23362;SDS011;11853;48.080;11.960;2023-08-20T10:47:37;5.60;;;4.72;;
23362;SDS011;11853;48.080;11.960;2023-08-20T10:50:07;5.10;;;4.60;;
23362;SDS011;11853;48.080;11.960;2023-08-20T10:52:39;7.00;;;4.57;;
23362;SDS011;11853;48.080;11.960;2023-08-20T10:55:06;5.72;;;4.82;;
23362;SDS011;11853;48.080;11.960;2023-08-20T10:57:34;6.13;;;4.97;;
23362;SDS011;11853;48.080;11.960;2023-08-20T11:00:02;7.60;;;4.85;;
23362;SDS011;11853;48.080;11.960;2023-08-20T11:02:37;6.50;;;5.00;;
23362;SDS011;11853;48.080;11.960;2023-08-20T11:05:04;5.30;;;4.80;;
23362;SDS011;11853;48.080;11.960;2023-08-20T11:07:41;6.47;;;4.43;;
23362;SDS011;11853;48.080;11.960;2023-08-20T11:10:07;7.13;;;4.65;;
23362;SDS011;11853;48.080;11.960;2023-08-20T11:12:33;5.80;;;4.63;;
23362;SDS011;11853;48.080;11.960;2023-08-20T11:15:01;5.10;;;4.70;;
23362;SDS011;11853;48.080;11.960;2023-08-20T11:17:29;4.65;;;4.30;;
23362;SDS011;11853;48.080;11.960;2023-08-20T11:19:55;5.38;;;4.85;;
23362;SDS011;11853;48.080;11.960;2023-08-20T11:22:20;5.68;;;5.18;;
23362;SDS011;11853;48.080;11.960;2023-08-20T11:24:46;5.65;;;5.10;;
23362;SDS011;11853;48.080;11.960;2023-08-20T11:27:12;6.05;;;5.55;;
23362;SDS011;11853;48.080;11.960;2023-08-20T11:29:41;5.95;;;5.40;;
23362;SDS011;11853;48.080;11.960;2023-08-20T11:32:08;5.53;;;5.03;;
23362;SDS011;11853;48.080;11.960;2023-08-20T11:34:34;5.65;;;5.15;;
23362;SDS011;11853;48.080;11.960;2023-08-20T11:37:01;6.40;;;5.15;;
23362;SDS011;11853;48.080;11.960;2023-08-20T11:39:28;5.65;;;5.15;;
23362;SDS011;11853;48.080;11.960;2023-08-20T11:41:54;5.97;;;5.30;;
23362;SDS011;11853;48.080;11.960;2023-08-20T11:44:20;5.55;;;5.05;;
23362;SDS011;11853;48.080;11.960;2023-08-20T11:46:47;5.70;;;5.30;;
23362;SDS011;11853;48.080;11.960;2023-08-20T11:49:14;5.78;;;5.28;;
23362;SDS011;11853;48.080;11.960;2023-08-20T11:51:47;6.93;;;5.20;;
23362;SDS011;11853;48.080;11.960;2023-08-20T11:54:15;5.63;;;5.10;;
23362;SDS011;11853;48.080;11.960;2023-08-20T11:56:49;5.88;;;4.95;;
23362;SDS011;11853;48.080;11.960;2023-08-20T11:59:17;7.05;;;5.25;;
23362;SDS011;11853;48.080;11.960;2023-08-20T12:02:05;6.05;;;5.18;;
23362;SDS011;11853;48.080;11.960;2023-08-20T12:04:30;5.18;;;4.78;;
23362;SDS011;11853;48.080;11.960;2023-08-20T12:07:09;5.75;;;4.50;;
23362;SDS011;11853;48.080;11.960;2023-08-20T12:09:39;8.30;;;4.80;;
23362;SDS011;11853;48.080;11.960;2023-08-20T12:12:05;5.32;;;4.82;;
23362;SDS011;11853;48.080;11.960;2023-08-20T12:14:32;6.07;;;4.85;;
23362;SDS011;11853;48.080;11.960;2023-08-20T12:16:58;5.22;;;4.75;;
23362;SDS011;11853;48.080;11.960;2023-08-20T12:19:24;5.68;;;5.13;;
23362;SDS011;11853;48.080;11.960;2023-08-20T12:21:50;5.68;;;4.82;;
23362;SDS011;11853;48.080;11.960;2023-08-20T12:24:16;6.97;;;5.03;;
23362;SDS011;11853;48.080;11.960;2023-08-20T12:26:44;5.82;;;4.15;;
23362;SDS011;11853;48.080;11.960;2023-08-20T12:29:10;5.68;;;4.70;;
23362;SDS011;11853;48.080;11.960;2023-08-20T12:31:38;4.88;;;4.47;;
23362;SDS011;11853;48.080;11.960;2023-08-20T12:34:05;5.07;;;4.57;;
23362;SDS011;11853;48.080;11.960;2023-08-20T12:36:31;5.78;;;4.63;;
23362;SDS011;11853;48.080;11.960;2023-08-20T12:38:56;6.68;;;4.72;;
23362;SDS011;11853;48.080;11.960;2023-08-20T12:41:22;4.90;;;3.67;;
23362;SDS011;11853;48.080;11.960;2023-08-20T12:43:48;5.75;;;5.10;;
23362;SDS011;11853;48.080;11.960;2023-08-20T12:46:14;5.20;;;4.70;;
23362;SDS011;11853;48.080;11.960;2023-08-20T12:48:40;5.20;;;4.78;;
23362;SDS011;11853;48.080;11.960;2023-08-20T12:51:05;5.45;;;5.05;;
23362;SDS011;11853;48.080;11.960;2023-08-20T12:53:31;6.63;;;4.93;;
23362;SDS011;11853;48.080;11.960;2023-08-20T12:55:57;4.95;;;4.55;;
23362;SDS011;11853;48.080;11.960;2023-08-20T12:58:23;7.50;;;4.75;;
23362;SDS011;11853;48.080;11.960;2023-08-20T13:00:49;5.85;;;5.20;;
23362;SDS011;11853;48.080;11.960;2023-08-20T13:03:17;5.32;;;4.57;;
23362;SDS011;11853;48.080;11.960;2023-08-20T13:05:43;4.97;;;4.50;;
23362;SDS011;11853;48.080;11.960;2023-08-20T13:08:09;5.13;;;4.68;;
23362;SDS011;11853;48.080;11.960;2023-08-20T13:10:40;6.05;;;5.22;;
23362;SDS011;11853;48.080;11.960;2023-08-20T13:13:09;5.15;;;4.60;;
23362;SDS011;11853;48.080;11.960;2023-08-20T13:15:36;6.70;;;4.88;;
23362;SDS011;11853;48.080;11.960;2023-08-20T13:18:02;4.90;;;4.47;;
23362;SDS011;11853;48.080;11.960;2023-08-20T13:20:29;5.63;;;4.72;;
23362;SDS011;11853;48.080;11.960;2023-08-20T13:22:55;5.70;;;5.20;;
23362;SDS011;11853;48.080;11.960;2023-08-20T13:25:20;5.30;;;4.72;;
23362;SDS011;11853;48.080;11.960;2023-08-20T13:27:47;5.30;;;4.80;;
23362;SDS011;11853;48.080;11.960;2023-08-20T13:30:13;5.43;;;4.63;;
23362;SDS011;11853;48.080;11.960;2023-08-20T13:32:39;5.32;;;4.82;;
23362;SDS011;11853;48.080;11.960;2023-08-20T13:35:06;5.75;;;4.50;;
23362;SDS011;11853;48.080;11.960;2023-08-20T13:37:35;5.53;;;4.70;;
23362;SDS011;11853;48.080;11.960;2023-08-20T13:40:01;6.65;;;5.13;;
23362;SDS011;11853;48.080;11.960;2023-08-20T13:42:28;5.43;;;4.93;;
23362;SDS011;11853;48.080;11.960;2023-08-20T13:44:54;5.15;;;4.70;;
23362;SDS011;11853;48.080;11.960;2023-08-20T13:47:21;5.43;;;5.00;;
23362;SDS011;11853;48.080;11.960;2023-08-20T13:49:47;5.90;;;5.10;;
23362;SDS011;11853;48.080;11.960;2023-08-20T13:52:12;5.55;;;5.00;;
23362;SDS011;11853;48.080;11.960;2023-08-20T13:54:38;6.50;;;4.80;;
23362;SDS011;11853;48.080;11.960;2023-08-20T13:57:04;5.82;;;4.78;;
23362;SDS011;11853;48.080;11.960;2023-08-20T13:59:30;5.53;;;4.65;;
23362;SDS011;11853;48.080;11.960;2023-08-20T14:01:56;5.45;;;4.93;;
23362;SDS011;11853;48.080;11.960;2023-08-20T14:04:21;5.32;;;4.75;;
23362;SDS011;11853;48.080;11.960;2023-08-20T14:06:47;5.50;;;5.00;;
23362;SDS011;11853;48.080;11.960;2023-08-20T14:09:13;5.38;;;4.85;;
23362;SDS011;11853;48.080;11.960;2023-08-20T14:11:39;5.70;;;4.82;;
23362;SDS011;11853;48.080;11.960;2023-08-20T14:14:05;5.15;;;4.68;;
23362;SDS011;11853;48.080;11.960;2023-08-20T14:16:31;9.77;;;5.00;;
23362;SDS011;11853;48.080;11.960;2023-08-20T14:18:56;5.88;;;4.65;;
23362;SDS011;11853;48.080;11.960;2023-08-20T14:21:22;5.30;;;4.43;;
23362;SDS011;11853;48.080;11.960;2023-08-20T14:23:48;5.03;;;4.60;;
23362;SDS011;11853;48.080;11.960;2023-08-20T14:26:13;5.53;;;4.75;;
23362;SDS011;11853;48.080;11.960;2023-08-20T14:28:39;5.00;;;4.60;;
23362;SDS011;11853;48.080;11.960;2023-08-20T14:31:04;6.88;;;4.82;;
23362;SDS011;11853;48.080;11.960;2023-08-20T14:33:30;6.88;;;4.50;;
23362;SDS011;11853;48.080;11.960;2023-08-20T14:35:56;5.82;;;5.15;;
23362;SDS011;11853;48.080;11.960;2023-08-20T14:38:22;5.22;;;4.82;;
23362;SDS011;11853;48.080;11.960;2023-08-20T14:40:48;5.45;;;4.95;;
23362;SDS011;11853;48.080;11.960;2023-08-20T14:43:17;5.60;;;4.57;;
23362;SDS011;11853;48.080;11.960;2023-08-20T14:45:43;5.38;;;4.88;;
23362;SDS011;11853;48.080;11.960;2023-08-20T14:48:10;5.30;;;4.90;;
23362;SDS011;11853;48.080;11.960;2023-08-20T14:50:36;5.45;;;4.40;;